Time;durP1;ratioP1;P1;durP2;ratioP2;P2;SDS_P1;SDS_P2;PMS_P1;PMS_P2;Temp;Humidity;BMP_temperature;BMP_pressure;BME280_temperature;BME280_humidity;BME280_pressure;Samples;Min_cycle;Max_cycle;Signal;HPM_P1;HPM_P2
2021/09/07 00:01:11;;;;;;;5.63;4.90;;;13.60;99.90;;;;;;485258;245;26965;-70
2021/09/07 00:03:12;;;;;;;6.13;5.53;;;13.60;99.90;;;;;;485223;245;28865;-70
2021/09/07 00:05:13;;;;;;;5.47;4.97;;;13.60;99.90;;;;;;485217;245;28681;-70
2021/09/07 00:07:14;;;;;;;5.00;4.50;;;13.60;99.90;;;;;;485248;245;28239;-70
2021/09/07 00:09:16;;;;;;;5.40;4.90;;;13.60;99.90;;;;;;485272;245;28367;-71
2021/09/07 00:11:17;;;;;;;5.43;4.93;;;13.60;99.90;;;;;;485223;245;28449;-70
2021/09/07 00:13:18;;;;;;;5.83;5.23;;;13.60;99.90;;;;;;485228;245;28579;-70
2021/09/07 00:15:19;;;;;;;5.30;4.80;;;13.60;99.90;;;;;;485242;245;28859;-70
2021/09/07 00:17:21;;;;;;;5.27;4.77;;;13.60;99.90;;;;;;485261;245;28352;-70
2021/09/07 00:19:22;;;;;;;5.33;4.83;;;13.60;99.90;;;;;;485234;245;28342;-70
2021/09/07 00:21:23;;;;;;;5.17;4.70;;;13.60;99.90;;;;;;485246;245;28794;-71
2021/09/07 00:23:24;;;;;;;6.30;5.70;;;13.60;99.90;;;;;;485225;245;29070;-70
2021/09/07 00:25:26;;;;;;;5.20;4.70;;;13.60;99.90;;;;;;485209;245;29767;-70
2021/09/07 00:27:27;;;;;;;6.50;5.90;;;13.60;99.90;;;;;;485234;245;28849;-70
2021/09/07 00:29:28;;;;;;;5.40;4.90;;;13.50;99.90;;;;;;485222;245;28259;-70
2021/09/07 00:31:29;;;;;;;5.40;4.90;;;13.50;99.90;;;;;;485241;245;28323;-70
2021/09/07 00:33:31;;;;;;;7.27;5.33;;;13.40;99.90;;;;;;485208;245;28556;-70
2021/09/07 00:35:32;;;;;;;4.97;4.53;;;13.40;99.90;;;;;;485237;245;28445;-70
2021/09/07 00:37:33;;;;;;;6.07;5.47;;;13.40;99.90;;;;;;485224;245;28358;-69
2021/09/07 00:39:34;;;;;;;5.97;5.17;;;13.40;99.90;;;;;;485242;245;28401;-71
2021/09/07 00:41:36;;;;;;;5.67;5.17;;;13.40;99.90;;;;;;485201;245;28560;-70
2021/09/07 00:43:37;;;;;;;5.50;5.00;;;13.30;99.90;;;;;;485222;245;28442;-72
2021/09/07 00:45:39;;;;;;;6.37;5.03;;;;;;;;;;484907;245;29351;-70
2021/09/07 00:47:41;;;;;;;6.13;5.57;;;13.30;99.90;;;;;;484752;245;26540;-70
2021/09/07 00:49:42;;;;;;;6.13;5.57;;;13.30;99.90;;;;;;484922;245;28282;-70
2021/09/07 00:51:43;;;;;;;5.80;5.20;;;13.30;99.90;;;;;;485263;245;28278;-70
2021/09/07 00:53:44;;;;;;;6.53;5.70;;;13.20;99.90;;;;;;485189;245;28245;-70
2021/09/07 00:55:46;;;;;;;5.83;5.33;;;13.20;99.90;;;;;;485227;245;28357;-70
2021/09/07 00:57:47;;;;;;;5.53;5.03;;;13.20;99.90;;;;;;485096;245;28365;-70
2021/09/07 00:59:48;;;;;;;5.77;5.00;;;13.20;99.90;;;;;;485166;245;28668;-70
2021/09/07 01:01:49;;;;;;;5.67;5.07;;;13.10;99.90;;;;;;485194;245;28699;-71
2021/09/07 01:03:51;;;;;;;6.17;5.33;;;13.20;99.90;;;;;;485178;245;29538;-70
2021/09/07 01:05:53;;;;;;;6.13;5.53;;;;;;;;;;485237;245;28692;-70
2021/09/07 01:07:54;;;;;;;5.70;5.20;;;13.20;99.90;;;;;;485226;245;26671;-70
2021/09/07 01:09:56;;;;;;;7.70;5.90;;;13.10;99.90;;;;;;485199;245;28420;-70
2021/09/07 01:11:57;;;;;;;6.27;5.57;;;13.10;99.90;;;;;;485224;245;28324;-70
2021/09/07 01:13:58;;;;;;;5.73;5.13;;;13.10;99.90;;;;;;485273;245;28720;-70
2021/09/07 01:15:59;;;;;;;5.77;5.27;;;13.00;99.90;;;;;;485276;245;28810;-70
2021/09/07 01:18:01;;;;;;;5.50;5.00;;;13.00;99.90;;;;;;485244;245;28844;-70
2021/09/07 01:20:02;;;;;;;5.87;5.07;;;13.00;99.90;;;;;;485241;245;28271;-70
2021/09/07 01:22:03;;;;;;;5.53;5.03;;;13.00;99.90;;;;;;485267;245;28436;-70
2021/09/07 01:24:04;;;;;;;5.33;4.83;;;13.00;99.90;;;;;;485258;245;28399;-70
2021/09/07 01:26:06;;;;;;;5.17;4.70;;;13.00;99.90;;;;;;485250;245;29000;-71
2021/09/07 01:28:12;;;;;;;6.00;5.40;;;13.00;99.90;;;;;;485254;245;28977;-71
2021/09/07 01:30:08;;;;;;;5.47;4.97;;;13.00;99.90;;;;;;484796;245;28131;-71
2021/09/07 01:32:09;;;;;;;5.87;5.27;;;13.00;99.90;;;;;;485210;245;28751;-70
2021/09/07 01:34:11;;;;;;;6.23;5.60;;;13.00;99.90;;;;;;485271;245;28368;-71
2021/09/07 01:36:12;;;;;;;5.80;5.27;;;13.00;99.90;;;;;;485254;245;28786;-70
2021/09/07 01:38:13;;;;;;;5.47;4.97;;;13.00;99.90;;;;;;485268;245;28780;-70
2021/09/07 01:40:14;;;;;;;5.80;5.30;;;12.90;99.90;;;;;;485235;245;28834;-70
2021/09/07 01:42:16;;;;;;;7.13;5.37;;;12.90;99.90;;;;;;485259;245;28811;-71
2021/09/07 01:44:17;;;;;;;5.80;5.20;;;12.90;99.90;;;;;;485274;245;28460;-69
2021/09/07 01:46:18;;;;;;;5.40;4.90;;;12.90;99.90;;;;;;485251;245;28306;-69
2021/09/07 01:48:19;;;;;;;6.20;5.60;;;12.90;99.90;;;;;;485287;245;28880;-70
2021/09/07 01:50:21;;;;;;;5.90;5.30;;;12.80;99.90;;;;;;485285;245;28452;-70
2021/09/07 01:52:23;;;;;;;6.10;5.50;;;12.80;99.90;;;;;;485292;245;28273;-70
2021/09/07 01:54:24;;;;;;;6.67;6.07;;;12.80;99.90;;;;;;485271;245;28275;-69
2021/09/07 01:56:26;;;;;;;6.20;5.30;;;12.80;99.90;;;;;;485213;245;28254;-70
2021/09/07 01:58:27;;;;;;;5.40;4.90;;;12.80;99.90;;;;;;485247;245;28727;-70
2021/09/07 02:00:28;;;;;;;6.20;5.57;;;12.70;99.90;;;;;;485272;245;28812;-69
2021/09/07 02:02:29;;;;;;;5.97;5.37;;;12.70;99.90;;;;;;485267;245;28579;-69
2021/09/07 02:04:31;;;;;;;6.87;5.30;;;12.70;99.90;;;;;;485252;245;28603;-70
2021/09/07 02:06:32;;;;;;;6.17;5.50;;;12.70;99.90;;;;;;485233;245;28546;-70
2021/09/07 02:08:33;;;;;;;5.63;5.13;;;12.70;99.90;;;;;;485239;245;28906;-70
2021/09/07 02:10:35;;;;;;;9.27;5.97;;;12.60;99.90;;;;;;485268;245;28351;-69
2021/09/07 02:12:36;;;;;;;5.67;5.10;;;12.60;99.90;;;;;;485248;245;28874;-70
2021/09/07 02:14:37;;;;;;;5.30;4.80;;;12.60;99.90;;;;;;485274;245;28396;-70
2021/09/07 02:16:38;;;;;;;5.90;5.33;;;12.60;99.90;;;;;;485217;245;28871;-70
2021/09/07 02:18:40;;;;;;;6.67;5.53;;;12.60;99.90;;;;;;485210;245;28865;-70
2021/09/07 02:20:41;;;;;;;5.47;4.93;;;12.60;99.90;;;;;;485257;245;29455;-70
2021/09/07 02:22:42;;;;;;;6.43;5.83;;;12.60;99.90;;;;;;485232;245;28976;-70
2021/09/07 02:24:43;;;;;;;6.83;5.27;;;12.60;99.90;;;;;;485227;245;28890;-69
2021/09/07 02:26:45;;;;;;;5.53;4.97;;;12.60;99.90;;;;;;485253;245;28566;-69
2021/09/07 02:28:46;;;;;;;6.00;5.40;;;12.60;99.90;;;;;;485253;245;28334;-70
2021/09/07 02:30:47;;;;;;;5.37;4.87;;;12.60;99.90;;;;;;485263;245;28509;-69
2021/09/07 02:32:48;;;;;;;5.67;5.07;;;12.60;99.90;;;;;;485211;245;28345;-69
2021/09/07 02:34:50;;;;;;;5.90;5.37;;;12.60;99.90;;;;;;485163;245;28481;-70
2021/09/07 02:36:51;;;;;;;5.77;5.10;;;12.60;99.90;;;;;;485080;245;28900;-69
2021/09/07 02:38:52;;;;;;;6.33;5.73;;;12.50;99.90;;;;;;485053;245;28589;-70
2021/09/07 02:40:57;;;;;;;6.50;5.90;;;12.50;99.90;;;;;;485006;245;28650;-69
2021/09/07 02:42:55;;;;;;;6.03;5.43;;;12.50;99.90;;;;;;484820;245;29026;-69
2021/09/07 02:44:56;;;;;;;7.33;5.50;;;12.60;99.90;;;;;;485234;245;28952;-70
2021/09/07 02:46:57;;;;;;;6.30;5.70;;;12.60;99.90;;;;;;485242;245;29576;-69
2021/09/07 02:48:58;;;;;;;6.17;5.57;;;12.50;99.90;;;;;;485244;245;29010;-70
2021/09/07 02:51:00;;;;;;;5.33;4.83;;;12.50;99.90;;;;;;485244;245;28560;-70
2021/09/07 02:53:01;;;;;;;5.93;5.30;;;12.50;99.90;;;;;;485015;245;28197;-70
2021/09/07 02:55:02;;;;;;;5.83;5.23;;;12.50;99.90;;;;;;485233;245;28387;-70
2021/09/07 02:57:04;;;;;;;5.60;5.07;;;12.50;99.90;;;;;;485211;245;28243;-70
2021/09/07 02:59:05;;;;;;;6.00;5.40;;;12.50;99.90;;;;;;485238;245;28903;-70
2021/09/07 03:01:06;;;;;;;6.40;5.43;;;12.50;99.90;;;;;;485257;245;28603;-71
2021/09/07 03:03:07;;;;;;;6.77;6.03;;;12.50;99.90;;;;;;485215;245;28419;-71
2021/09/07 03:05:08;;;;;;;6.30;5.20;;;12.50;99.90;;;;;;485211;245;28419;-70
2021/09/07 03:07:10;;;;;;;6.27;5.37;;;12.50;99.90;;;;;;485211;245;29350;-71
2021/09/07 03:09:11;;;;;;;6.10;5.50;;;12.50;99.90;;;;;;485236;245;29376;-70
2021/09/07 03:11:12;;;;;;;6.37;5.70;;;12.50;99.90;;;;;;485242;245;28947;-70
2021/09/07 03:13:13;;;;;;;6.37;5.67;;;12.50;99.90;;;;;;485214;245;28556;-70
2021/09/07 03:15:15;;;;;;;6.30;5.67;;;12.40;99.90;;;;;;485213;245;28486;-70
2021/09/07 03:17:16;;;;;;;6.03;5.43;;;12.40;99.90;;;;;;485249;245;28529;-70
2021/09/07 03:19:17;;;;;;;6.17;5.40;;;12.40;99.90;;;;;;485266;245;28853;-70
2021/09/07 03:21:18;;;;;;;5.50;5.03;;;12.40;99.90;;;;;;485259;245;28259;-70
2021/09/07 03:23:20;;;;;;;6.10;5.50;;;12.40;99.90;;;;;;485204;245;28229;-70
2021/09/07 03:25:21;;;;;;;5.53;5.03;;;12.50;99.90;;;;;;485221;245;28683;-70
2021/09/07 03:27:22;;;;;;;6.73;6.03;;;12.40;99.90;;;;;;485243;245;29038;-70
2021/09/07 03:29:23;;;;;;;6.10;5.17;;;12.40;99.90;;;;;;485246;245;28996;-70
2021/09/07 03:31:25;;;;;;;6.00;5.40;;;12.30;99.90;;;;;;485230;245;29240;-70
2021/09/07 03:33:26;;;;;;;5.90;5.10;;;12.30;99.90;;;;;;485197;245;29422;-70
2021/09/07 03:35:27;;;;;;;6.27;5.33;;;12.30;99.90;;;;;;485248;245;28188;-70
2021/09/07 03:37:28;;;;;;;6.73;5.80;;;12.30;99.90;;;;;;485256;245;28374;-70
2021/09/07 03:39:30;;;;;;;5.60;5.10;;;12.30;99.90;;;;;;485238;245;28190;-70
2021/09/07 03:41:31;;;;;;;6.23;5.60;;;12.30;99.90;;;;;;485245;245;28170;-70
2021/09/07 03:43:32;;;;;;;6.27;5.67;;;12.30;99.90;;;;;;485241;245;28564;-70
2021/09/07 03:45:33;;;;;;;7.40;5.57;;;12.40;99.90;;;;;;485207;245;28628;-70
2021/09/07 03:47:35;;;;;;;6.27;5.67;;;12.30;99.90;;;;;;485236;245;28845;-70
2021/09/07 03:49:36;;;;;;;6.53;5.60;;;12.30;99.90;;;;;;485228;245;28358;-70
2021/09/07 03:51:37;;;;;;;6.43;5.73;;;12.30;99.90;;;;;;485237;245;29361;-70
2021/09/07 03:53:38;;;;;;;6.83;5.30;;;12.30;99.90;;;;;;485219;245;28820;-70
2021/09/07 03:55:40;;;;;;;6.33;5.73;;;12.30;99.90;;;;;;485201;245;28826;-70
2021/09/07 03:57:41;;;;;;;5.70;5.10;;;12.30;99.90;;;;;;485249;245;28800;-70
2021/09/07 03:59:42;;;;;;;6.30;5.60;;;12.30;99.90;;;;;;485235;245;28344;-70
2021/09/07 04:01:43;;;;;;;10.70;5.50;;;12.30;99.90;;;;;;485253;245;28192;-70
2021/09/07 04:03:45;;;;;;;6.97;5.80;;;12.30;99.90;;;;;;485238;245;28326;-70
2021/09/07 04:05:46;;;;;;;7.50;5.43;;;12.30;99.90;;;;;;485211;245;28371;-70
2021/09/07 04:07:49;;;;;;;5.77;5.20;;;;;;;;;;485247;245;28698;-70
2021/09/07 04:09:50;;;;;;;7.00;6.30;;;12.30;99.90;;;;;;485268;245;27268;-70
2021/09/07 04:11:51;;;;;;;6.70;6.00;;;12.30;99.90;;;;;;485216;245;28992;-70
2021/09/07 04:13:52;;;;;;;6.57;5.90;;;12.30;99.90;;;;;;485225;245;28578;-71
2021/09/07 04:15:53;;;;;;;6.67;5.40;;;12.30;99.90;;;;;;485239;245;28496;-70
2021/09/07 04:17:55;;;;;;;7.20;6.20;;;12.30;99.90;;;;;;485248;245;29003;-70
2021/09/07 04:19:56;;;;;;;6.60;5.60;;;12.30;99.90;;;;;;485210;245;28902;-70
2021/09/07 04:21:57;;;;;;;6.43;5.70;;;12.30;99.90;;;;;;485238;245;28462;-70
2021/09/07 04:23:58;;;;;;;6.63;5.93;;;12.20;99.90;;;;;;485232;245;28487;-70
2021/09/07 04:26:00;;;;;;;6.60;5.90;;;12.30;99.90;;;;;;485238;245;29361;-70
2021/09/07 04:28:01;;;;;;;7.13;6.43;;;12.30;99.90;;;;;;485252;245;29702;-69
2021/09/07 04:30:02;;;;;;;6.87;6.27;;;12.20;99.90;;;;;;485244;245;29055;-70
2021/09/07 04:32:03;;;;;;;7.03;6.33;;;12.20;99.90;;;;;;485236;245;28639;-70
2021/09/07 04:34:05;;;;;;;7.57;6.87;;;12.20;99.90;;;;;;485224;245;28478;-70
2021/09/07 04:36:06;;;;;;;7.27;6.50;;;12.10;99.90;;;;;;485256;245;28033;-70
2021/09/07 04:38:07;;;;;;;8.30;6.40;;;12.10;99.90;;;;;;485263;245;28350;-70
2021/09/07 04:40:08;;;;;;;6.50;5.80;;;12.10;99.90;;;;;;485273;245;28236;-70
2021/09/07 04:42:10;;;;;;;8.10;5.77;;;12.10;99.90;;;;;;485226;245;28240;-70
2021/09/07 04:44:11;;;;;;;7.43;6.63;;;12.10;99.90;;;;;;485243;245;28490;-70
2021/09/07 04:46:12;;;;;;;8.17;6.27;;;12.20;99.90;;;;;;485274;245;28520;-70
2021/09/07 04:48:13;;;;;;;7.30;6.50;;;12.20;99.90;;;;;;485275;245;28632;-71
2021/09/07 04:50:15;;;;;;;7.93;7.13;;;12.20;99.90;;;;;;485264;245;29078;-70
2021/09/07 04:52:16;;;;;;;7.00;6.20;;;12.30;99.90;;;;;;485211;245;28888;-71
2021/09/07 04:54:17;;;;;;;7.17;6.47;;;12.30;99.90;;;;;;485218;245;29439;-70
2021/09/07 04:56:18;;;;;;;7.00;6.13;;;12.30;99.90;;;;;;485253;245;28262;-70
2021/09/07 04:58:20;;;;;;;7.00;6.30;;;12.40;99.90;;;;;;485249;245;28528;-70
2021/09/07 05:00:21;;;;;;;8.50;7.00;;;12.40;99.90;;;;;;485244;245;28650;-70
2021/09/07 05:02:22;;;;;;;7.37;6.57;;;12.30;99.90;;;;;;485244;245;28440;-70
2021/09/07 05:04:23;;;;;;;6.17;5.57;;;12.30;99.90;;;;;;485197;245;28154;-70
2021/09/07 05:06:25;;;;;;;7.03;6.33;;;12.40;99.90;;;;;;485281;245;29030;-70
2021/09/07 05:08:27;;;;;;;6.47;5.87;;;12.40;99.90;;;;;;485246;245;28653;-70
2021/09/07 05:10:27;;;;;;;7.17;6.07;;;12.40;99.90;;;;;;485213;245;29365;-70
2021/09/07 05:12:29;;;;;;;7.03;6.43;;;12.50;99.90;;;;;;485224;245;29437;-70
2021/09/07 05:14:30;;;;;;;6.37;5.77;;;12.50;99.90;;;;;;485276;245;28871;-69
2021/09/07 05:16:31;;;;;;;7.33;6.50;;;12.50;99.90;;;;;;485282;245;28683;-70
2021/09/07 05:18:32;;;;;;;6.80;6.10;;;12.60;99.90;;;;;;485232;245;28130;-70
2021/09/07 05:20:34;;;;;;;6.97;6.27;;;12.60;99.90;;;;;;485230;245;28358;-70
2021/09/07 05:22:35;;;;;;;11.43;6.33;;;12.70;99.90;;;;;;485246;245;28614;-70
2021/09/07 05:24:36;;;;;;;6.83;6.13;;;12.70;99.90;;;;;;485257;245;28419;-70
2021/09/07 05:26:37;;;;;;;6.50;5.90;;;12.70;99.90;;;;;;485251;245;28386;-72
2021/09/07 05:28:39;;;;;;;8.43;6.77;;;12.60;99.90;;;;;;485208;245;28335;-69
2021/09/07 05:30:40;;;;;;;8.07;6.80;;;12.60;99.90;;;;;;485233;245;28701;-70
2021/09/07 05:32:41;;;;;;;7.30;6.50;;;12.50;99.90;;;;;;485221;245;28866;-71
2021/09/07 05:34:42;;;;;;;7.63;6.80;;;12.50;99.90;;;;;;485229;245;28920;-70
2021/09/07 05:36:44;;;;;;;7.33;6.60;;;12.60;99.90;;;;;;485271;245;28856;-71
2021/09/07 05:38:45;;;;;;;6.93;6.23;;;12.60;99.90;;;;;;485281;245;29186;-70
2021/09/07 05:40:46;;;;;;;9.27;6.60;;;12.70;99.90;;;;;;485241;245;28801;-70
2021/09/07 05:42:47;;;;;;;7.13;6.43;;;12.80;99.90;;;;;;485236;245;28723;-72
2021/09/07 05:44:49;;;;;;;7.20;6.00;;;12.80;99.90;;;;;;485273;245;28518;-70
2021/09/07 05:46:50;;;;;;;6.63;6.03;;;12.90;99.90;;;;;;485251;245;28387;-71
2021/09/07 05:48:51;;;;;;;7.37;6.67;;;12.80;99.90;;;;;;485212;245;28217;-71
2021/09/07 05:50:52;;;;;;;8.07;6.90;;;12.90;99.90;;;;;;485226;245;28281;-70
2021/09/07 05:52:54;;;;;;;6.40;5.80;;;12.90;99.90;;;;;;485242;245;28425;-69
2021/09/07 05:54:55;;;;;;;7.20;6.47;;;13.00;99.90;;;;;;485239;245;28469;-69
2021/09/07 05:56:58;;;;;;;6.13;5.53;;;13.10;99.90;;;;;;485226;245;28344;-71
2021/09/07 05:58:59;;;;;;;8.57;6.40;;;;;;;;;;485172;245;28539;-70
2021/09/07 06:01:00;;;;;;;7.37;6.60;;;13.30;99.90;;;;;;485239;245;26607;-71
2021/09/07 06:03:07;;;;;;;8.83;6.70;;;13.40;99.90;;;;;;485224;245;28347;-70
2021/09/07 06:05:02;;;;;;;9.83;6.80;;;13.50;99.90;;;;;;484703;245;28304;-70
2021/09/07 06:07:04;;;;;;;10.03;7.03;;;13.50;99.90;;;;;;485233;245;28325;-70
2021/09/07 06:09:05;;;;;;;11.30;6.87;;;13.60;99.90;;;;;;485253;245;28366;-72
2021/09/07 06:11:07;;;;;;;9.90;6.90;;;13.60;99.90;;;;;;485238;245;28548;-72
2021/09/07 06:13:08;;;;;;;8.27;6.10;;;13.60;99.90;;;;;;485278;245;28461;-71
2021/09/07 06:15:09;;;;;;;9.13;6.50;;;13.50;99.90;;;;;;485211;245;28397;-69
2021/09/07 06:17:10;;;;;;;8.23;6.10;;;13.40;99.90;;;;;;485237;245;28352;-69
2021/09/07 06:19:11;;;;;;;7.57;6.70;;;13.50;99.90;;;;;;485205;245;28369;-69
2021/09/07 06:21:12;;;;;;;11.93;7.10;;;13.50;99.90;;;;;;485238;245;28839;-69
2021/09/07 06:23:14;;;;;;;8.20;6.20;;;13.60;99.90;;;;;;485265;245;29395;-69
2021/09/07 06:25:15;;;;;;;7.73;6.83;;;13.60;99.90;;;;;;485250;245;28618;-69
2021/09/07 06:27:16;;;;;;;7.10;6.27;;;13.60;99.90;;;;;;485247;245;29030;-69
2021/09/07 06:29:18;;;;;;;6.87;6.03;;;13.60;99.90;;;;;;485218;245;29346;-69
2021/09/07 06:31:19;;;;;;;6.53;5.80;;;13.70;99.90;;;;;;485283;245;28961;-69
2021/09/07 06:33:20;;;;;;;7.70;6.43;;;13.80;99.90;;;;;;485241;245;28961;-69
2021/09/07 06:35:21;;;;;;;6.60;5.90;;;13.90;99.90;;;;;;485201;245;28997;-70
2021/09/07 06:37:23;;;;;;;7.20;6.10;;;14.00;99.90;;;;;;485225;245;28460;-72
2021/09/07 06:39:24;;;;;;;6.57;5.97;;;14.20;99.90;;;;;;485206;245;28882;-72
2021/09/07 06:41:25;;;;;;;6.80;6.20;;;14.30;99.90;;;;;;485254;245;28550;-72
2021/09/07 06:43:26;;;;;;;7.67;6.97;;;14.40;99.90;;;;;;485222;245;28554;-71
2021/09/07 06:45:28;;;;;;;9.03;7.00;;;14.50;99.90;;;;;;485207;245;28918;-72
2021/09/07 06:47:29;;;;;;;7.33;6.50;;;14.60;99.90;;;;;;485198;245;28942;-71
2021/09/07 06:49:30;;;;;;;7.03;6.33;;;14.60;99.90;;;;;;485210;245;28968;-71
2021/09/07 06:51:31;;;;;;;6.97;6.27;;;14.60;99.90;;;;;;485244;245;29469;-71
2021/09/07 06:53:33;;;;;;;6.90;6.20;;;14.60;99.90;;;;;;485247;245;29399;-72
2021/09/07 06:55:34;;;;;;;6.90;6.20;;;14.70;99.90;;;;;;485236;245;29396;-71
2021/09/07 06:57:35;;;;;;;7.60;6.07;;;14.60;99.90;;;;;;485206;245;29463;-71
2021/09/07 06:59:36;;;;;;;10.63;5.60;;;14.50;99.90;;;;;;485232;245;28885;-72
2021/09/07 07:01:38;;;;;;;6.63;6.00;;;14.50;99.90;;;;;;484991;245;28924;-72
2021/09/07 07:03:39;;;;;;;6.93;6.27;;;14.50;99.90;;;;;;483690;245;28533;-71
2021/09/07 07:05:40;;;;;;;6.53;5.93;;;14.50;99.90;;;;;;485181;245;29249;-71
2021/09/07 07:07:41;;;;;;;6.13;5.53;;;14.50;99.90;;;;;;485212;245;30057;-72
2021/09/07 07:09:43;;;;;;;6.13;5.53;;;14.50;99.90;;;;;;485242;245;29304;-72
2021/09/07 07:11:44;;;;;;;6.33;5.73;;;14.60;99.90;;;;;;485196;245;29362;-72
2021/09/07 07:13:45;;;;;;;7.70;7.00;;;14.70;99.90;;;;;;485224;245;28921;-71
2021/09/07 07:15:46;;;;;;;7.90;6.50;;;14.80;99.90;;;;;;485199;245;28843;-69
2021/09/07 07:17:48;;;;;;;6.50;5.90;;;14.90;99.90;;;;;;485196;245;28817;-69
2021/09/07 07:19:51;;;;;;;6.87;6.20;;;15.10;99.90;;;;;;485196;245;28880;-69
2021/09/07 07:21:50;;;;;;;6.73;5.80;;;15.20;99.90;;;;;;485077;245;28819;-71
2021/09/07 07:23:51;;;;;;;8.50;5.97;;;15.30;99.90;;;;;;485217;245;28801;-72
2021/09/07 07:25:53;;;;;;;6.77;6.07;;;15.40;99.90;;;;;;485176;245;28853;-71
2021/09/07 07:27:54;;;;;;;6.20;5.60;;;15.40;99.90;;;;;;485227;245;29214;-72
2021/09/07 07:29:55;;;;;;;8.30;6.50;;;15.40;99.90;;;;;;485209;245;28851;-72
2021/09/07 07:31:56;;;;;;;7.10;6.40;;;15.50;99.90;;;;;;485170;245;29362;-69
2021/09/07 07:33:59;;;;;;;7.00;6.40;;;;;;;;;;485181;245;29237;-70
2021/09/07 07:36:00;;;;;;;6.43;5.83;;;15.70;99.90;;;;;;485198;245;27950;-71
2021/09/07 07:38:01;;;;;;;6.77;6.17;;;15.80;99.90;;;;;;485173;245;28817;-72
2021/09/07 07:40:02;;;;;;;6.27;5.67;;;16.00;99.90;;;;;;485238;245;28936;-72
2021/09/07 07:42:03;;;;;;;6.83;5.70;;;16.10;99.90;;;;;;485205;245;28868;-69
2021/09/07 07:44:05;;;;;;;6.17;5.60;;;16.20;99.90;;;;;;485170;245;28821;-69
2021/09/07 07:46:06;;;;;;;6.40;5.80;;;16.20;99.90;;;;;;485172;245;28793;-72
2021/09/07 07:48:07;;;;;;;6.33;5.73;;;16.20;99.90;;;;;;485156;245;28916;-71
2021/09/07 07:50:08;;;;;;;6.70;6.10;;;16.20;99.90;;;;;;485222;245;28853;-71
2021/09/07 07:52:10;;;;;;;6.27;5.60;;;16.20;99.90;;;;;;485218;245;28797;-71
2021/09/07 07:54:12;;;;;;;6.17;5.60;;;16.30;99.90;;;;;;485201;245;29397;-71
2021/09/07 07:56:12;;;;;;;6.53;5.87;;;16.40;99.90;;;;;;485173;245;29233;-71
2021/09/07 07:58:14;;;;;;;5.93;5.43;;;;;;;;;;485212;245;29332;-71
2021/09/07 08:00:16;;;;;;;6.97;6.27;;;16.60;99.90;;;;;;485210;245;28096;-72
2021/09/07 08:02:17;;;;;;;7.60;6.53;;;16.70;99.90;;;;;;485248;245;28818;-72
2021/09/07 08:04:18;;;;;;;7.73;6.33;;;16.70;99.90;;;;;;485213;245;28786;-72
2021/09/07 08:06:19;;;;;;;6.73;6.03;;;16.70;99.90;;;;;;485232;245;28823;-71
2021/09/07 08:08:21;;;;;;;6.73;6.07;;;16.60;99.90;;;;;;485233;245;28879;-69
2021/09/07 08:10:22;;;;;;;7.97;6.50;;;16.60;99.90;;;;;;485213;245;28785;-69
2021/09/07 08:12:23;;;;;;;6.53;5.93;;;16.70;99.90;;;;;;485287;245;28802;-69
2021/09/07 08:14:24;;;;;;;7.20;6.50;;;16.80;99.90;;;;;;485270;245;28806;-71
2021/09/07 08:16:26;;;;;;;6.87;6.17;;;16.90;99.90;;;;;;485220;245;28910;-70
2021/09/07 08:18:27;;;;;;;7.77;6.53;;;17.00;99.90;;;;;;485257;245;28885;-69
2021/09/07 08:20:30;;;;;;;6.47;5.87;;;17.10;99.90;;;;;;485254;245;29226;-70
2021/09/07 08:22:29;;;;;;;7.00;6.30;;;17.20;99.90;;;;;;485113;245;29278;-70
2021/09/07 08:24:31;;;;;;;6.90;6.00;;;17.30;99.90;;;;;;485230;245;29287;-69
2021/09/07 08:26:32;;;;;;;8.33;6.07;;;17.40;99.90;;;;;;485194;245;28965;-69
2021/09/07 08:28:33;;;;;;;6.50;5.90;;;17.50;99.90;;;;;;485219;245;28816;-69
2021/09/07 08:30:34;;;;;;;6.80;6.10;;;17.50;99.90;;;;;;485235;245;28793;-72
2021/09/07 08:32:36;;;;;;;6.80;6.17;;;17.60;99.90;;;;;;485213;245;28828;-69
2021/09/07 08:34:37;;;;;;;7.30;6.50;;;17.70;99.90;;;;;;485220;245;28794;-70
2021/09/07 08:36:38;;;;;;;6.90;6.20;;;17.70;99.90;;;;;;485228;245;28830;-71
2021/09/07 08:38:39;;;;;;;6.60;5.80;;;17.70;99.90;;;;;;485224;245;29085;-69
2021/09/07 08:40:41;;;;;;;8.90;6.20;;;17.80;99.90;;;;;;485250;245;28878;-69
2021/09/07 08:42:42;;;;;;;6.77;6.00;;;17.80;99.90;;;;;;485208;245;28851;-71
2021/09/07 08:44:45;;;;;;;9.20;7.10;;;17.80;99.90;;;;;;485219;245;29249;-71
2021/09/07 08:46:44;;;;;;;7.77;6.60;;;17.80;99.90;;;;;;485073;245;29419;-70
2021/09/07 08:48:46;;;;;;;6.90;6.23;;;17.90;99.90;;;;;;485209;245;29425;-71
2021/09/07 08:50:47;;;;;;;6.80;6.03;;;17.90;99.90;;;;;;485255;245;28870;-72
2021/09/07 08:52:48;;;;;;;6.97;6.20;;;17.90;99.90;;;;;;485241;245;28917;-71
2021/09/07 08:54:49;;;;;;;8.43;6.67;;;18.00;99.90;;;;;;485222;245;28809;-71
2021/09/07 08:56:51;;;;;;;8.23;6.80;;;18.10;99.90;;;;;;485220;245;28913;-71
2021/09/07 08:58:52;;;;;;;7.20;6.50;;;18.10;99.90;;;;;;485206;245;29184;-71
2021/09/07 09:00:53;;;;;;;7.30;6.10;;;18.20;99.90;;;;;;485223;245;28813;-71
2021/09/07 09:02:54;;;;;;;6.47;5.80;;;18.20;99.90;;;;;;485227;245;28958;-70
2021/09/07 09:04:57;;;;;;;6.37;5.60;;;18.30;99.90;;;;;;485182;245;28835;-69
2021/09/07 09:06:57;;;;;;;7.60;6.20;;;18.30;99.90;;;;;;485070;245;28817;-71
2021/09/07 09:08:58;;;;;;;7.30;6.60;;;18.40;99.90;;;;;;485225;245;29372;-70
2021/09/07 09:10:59;;;;;;;7.57;6.47;;;18.50;99.90;;;;;;485218;245;29309;-70
2021/09/07 09:13:01;;;;;;;8.20;6.93;;;18.60;99.90;;;;;;485194;245;29544;-70
2021/09/07 09:15:02;;;;;;;7.70;6.77;;;18.60;99.90;;;;;;485087;245;28878;-70
2021/09/07 09:17:03;;;;;;;7.07;6.37;;;18.80;99.90;;;;;;485114;245;28890;-70
2021/09/07 09:19:05;;;;;;;7.27;6.33;;;18.90;99.90;;;;;;485175;245;28929;-72
2021/09/07 09:21:06;;;;;;;7.80;6.73;;;19.00;99.90;;;;;;485168;245;28846;-71
2021/09/07 09:23:07;;;;;;;9.40;7.90;;;19.30;99.90;;;;;;485210;245;28823;-71
2021/09/07 09:25:08;;;;;;;8.00;6.87;;;19.90;99.90;;;;;;485190;245;28797;-71
2021/09/07 09:27:11;;;;;;;8.70;7.77;;;20.00;99.90;;;;;;485187;245;28925;-71
2021/09/07 09:29:11;;;;;;;9.73;7.90;;;20.30;99.90;;;;;;485168;245;28827;-71
2021/09/07 09:31:12;;;;;;;9.40;8.10;;;20.40;99.90;;;;;;485209;245;28903;-71
2021/09/07 09:33:13;;;;;;;11.30;7.27;;;20.60;99.90;;;;;;485248;245;29358;-71
2021/09/07 09:35:14;;;;;;;8.27;7.00;;;20.70;99.90;;;;;;485205;245;29225;-71
2021/09/07 09:37:16;;;;;;;9.27;7.87;;;20.50;99.90;;;;;;485229;245;29322;-71
2021/09/07 09:39:17;;;;;;;11.97;8.00;;;20.80;99.90;;;;;;485241;245;28939;-72
2021/09/07 09:41:18;;;;;;;11.43;8.57;;;21.00;99.90;;;;;;485201;245;28884;-72
2021/09/07 09:43:19;;;;;;;9.90;7.83;;;21.00;99.90;;;;;;485198;245;28820;-71
2021/09/07 09:45:21;;;;;;;9.23;7.70;;;21.00;99.90;;;;;;485218;245;28784;-71
2021/09/07 09:47:22;;;;;;;9.47;7.27;;;21.10;99.90;;;;;;485203;245;28799;-71
2021/09/07 09:49:26;;;;;;;9.67;8.10;;;21.10;99.90;;;;;;485241;245;28842;-71
2021/09/07 09:51:24;;;;;;;9.40;7.50;;;21.20;99.90;;;;;;484990;245;28873;-72
2021/09/07 09:53:26;;;;;;;9.80;7.07;;;21.30;99.90;;;;;;485214;245;28914;-71
2021/09/07 09:55:27;;;;;;;10.20;8.20;;;21.30;99.90;;;;;;485194;245;30307;-71
2021/09/07 09:57:28;;;;;;;8.00;7.03;;;21.20;99.90;;;;;;485216;245;29303;-71
2021/09/07 09:59:29;;;;;;;9.53;7.57;;;21.40;99.90;;;;;;485241;245;29391;-72
2021/09/07 10:01:31;;;;;;;10.93;7.33;;;21.50;99.90;;;;;;485240;245;28917;-71
2021/09/07 10:03:32;;;;;;;9.07;7.30;;;21.40;99.90;;;;;;485235;245;28831;-71
2021/09/07 10:05:33;;;;;;;8.40;7.50;;;21.30;99.90;;;;;;485228;245;28887;-72
2021/09/07 10:07:34;;;;;;;9.97;7.20;;;21.40;99.90;;;;;;485222;245;28793;-71
2021/09/07 10:09:36;;;;;;;9.70;7.50;;;21.60;99.90;;;;;;485241;245;28945;-71
2021/09/07 10:11:37;;;;;;;8.53;7.17;;;21.60;99.90;;;;;;485214;245;28818;-71
2021/09/07 10:13:38;;;;;;;9.70;7.63;;;21.60;99.90;;;;;;485181;245;28819;-71
2021/09/07 10:15:43;;;;;;;9.17;6.70;;;21.60;99.90;;;;;;485228;245;28836;-71
2021/09/07 10:19:46;;;;;;;10.13;7.07;;;21.60;99.90;;;;;;485210;245;29311;-71
2021/09/07 10:23:52;;;;;;;8.67;7.03;;;21.70;99.90;;;;;;485193;245;28779;-71
2021/09/07 10:25:51;;;;;;;8.67;7.50;;;21.70;99.90;;;;;;485056;245;29330;-71
2021/09/07 10:27:53;;;;;;;7.73;6.93;;;21.70;99.90;;;;;;485218;245;29262;-71
2021/09/07 10:29:54;;;;;;;10.20;7.00;;;21.90;99.90;;;;;;485215;245;29293;-71
2021/09/07 10:31:57;;;;;;;8.70;7.60;;;21.70;99.90;;;;;;485251;245;29011;-71
2021/09/07 10:33:58;;;;;;;9.60;7.20;;;21.70;99.90;;;;;;485084;245;28866;-71
2021/09/07 10:35:58;;;;;;;7.73;6.30;;;21.70;99.90;;;;;;484991;245;28847;-71